sensor_id;sensor_type;location;lat;lon;timestamp;P1;durP1;ratioP1;P2;durP2;ratioP2
62903;SDS011;49000;50.698;13.322;2023-04-25T00:00:57;6.43;;;4.80;;
62903;SDS011;49000;50.698;13.322;2023-04-25T00:03:23;5.67;;;5.07;;
62903;SDS011;49000;50.698;13.322;2023-04-25T00:05:50;7.13;;;4.77;;
62903;SDS011;49000;50.698;13.322;2023-04-25T00:08:16;5.67;;;4.30;;
62903;SDS011;49000;50.698;13.322;2023-04-25T00:10:42;6.50;;;4.50;;
62903;SDS011;49000;50.698;13.322;2023-04-25T00:13:07;5.20;;;4.30;;
62903;SDS011;49000;50.698;13.322;2023-04-25T00:15:33;6.73;;;4.43;;
62903;SDS011;49000;50.698;13.322;2023-04-25T00:18:00;9.60;;;4.83;;
62903;SDS011;49000;50.698;13.322;2023-04-25T00:20:26;5.40;;;4.20;;
62903;SDS011;49000;50.698;13.322;2023-04-25T00:22:51;4.77;;;3.80;;
62903;SDS011;49000;50.698;13.322;2023-04-25T00:25:18;6.70;;;4.70;;
62903;SDS011;49000;50.698;13.322;2023-04-25T00:27:44;6.50;;;4.17;;
62903;SDS011;49000;50.698;13.322;2023-04-25T00:30:10;7.07;;;4.23;;
62903;SDS011;49000;50.698;13.322;2023-04-25T00:32:36;4.93;;;3.80;;
62903;SDS011;49000;50.698;13.322;2023-04-25T00:35:01;7.37;;;4.93;;
62903;SDS011;49000;50.698;13.322;2023-04-25T00:37:27;6.00;;;4.47;;
62903;SDS011;49000;50.698;13.322;2023-04-25T00:39:53;7.37;;;4.20;;
62903;SDS011;49000;50.698;13.322;2023-04-25T00:42:20;5.73;;;4.33;;
62903;SDS011;49000;50.698;13.322;2023-04-25T00:44:46;5.67;;;4.03;;
62903;SDS011;49000;50.698;13.322;2023-04-25T00:47:12;6.50;;;4.37;;
62903;SDS011;49000;50.698;13.322;2023-04-25T00:49:38;5.33;;;4.20;;
62903;SDS011;49000;50.698;13.322;2023-04-25T00:52:04;5.27;;;3.70;;
62903;SDS011;49000;50.698;13.322;2023-04-25T00:54:29;5.47;;;3.93;;
62903;SDS011;49000;50.698;13.322;2023-04-25T00:56:55;5.17;;;4.03;;
62903;SDS011;49000;50.698;13.322;2023-04-25T00:59:21;3.50;;;3.00;;
62903;SDS011;49000;50.698;13.322;2023-04-25T01:01:47;4.70;;;3.83;;
62903;SDS011;49000;50.698;13.322;2023-04-25T01:04:13;5.87;;;3.80;;
62903;SDS011;49000;50.698;13.322;2023-04-25T01:06:38;5.30;;;4.10;;
62903;SDS011;49000;50.698;13.322;2023-04-25T01:09:04;8.67;;;4.07;;
62903;SDS011;49000;50.698;13.322;2023-04-25T01:11:30;5.70;;;3.60;;
62903;SDS011;49000;50.698;13.322;2023-04-25T01:13:56;4.60;;;3.23;;
62903;SDS011;49000;50.698;13.322;2023-04-25T01:16:21;6.40;;;3.80;;
62903;SDS011;49000;50.698;13.322;2023-04-25T01:18:48;3.90;;;3.47;;
62903;SDS011;49000;50.698;13.322;2023-04-25T01:21:15;4.70;;;3.03;;
62903;SDS011;49000;50.698;13.322;2023-04-25T01:23:41;5.53;;;3.10;;
62903;SDS011;49000;50.698;13.322;2023-04-25T01:26:10;5.60;;;3.13;;
62903;SDS011;49000;50.698;13.322;2023-04-25T01:28:36;3.10;;;2.80;;
62903;SDS011;49000;50.698;13.322;2023-04-25T01:31:02;5.17;;;3.47;;
62903;SDS011;49000;50.698;13.322;2023-04-25T01:33:29;3.57;;;3.20;;
62903;SDS011;49000;50.698;13.322;2023-04-25T01:35:54;4.93;;;2.93;;
62903;SDS011;49000;50.698;13.322;2023-04-25T01:38:20;3.53;;;2.40;;
62903;SDS011;49000;50.698;13.322;2023-04-25T01:40:46;3.67;;;2.93;;
62903;SDS011;49000;50.698;13.322;2023-04-25T01:43:14;6.37;;;3.40;;
62903;SDS011;49000;50.698;13.322;2023-04-25T01:45:40;5.07;;;3.10;;
62903;SDS011;49000;50.698;13.322;2023-04-25T01:48:09;3.90;;;3.10;;
62903;SDS011;49000;50.698;13.322;2023-04-25T01:50:37;3.93;;;3.10;;
62903;SDS011;49000;50.698;13.322;2023-04-25T01:53:03;4.27;;;3.40;;
62903;SDS011;49000;50.698;13.322;2023-04-25T01:55:30;5.27;;;3.60;;
62903;SDS011;49000;50.698;13.322;2023-04-25T01:57:55;4.97;;;3.60;;
62903;SDS011;49000;50.698;13.322;2023-04-25T02:00:21;6.73;;;3.63;;
62903;SDS011;49000;50.698;13.322;2023-04-25T02:02:47;5.53;;;3.80;;
62903;SDS011;49000;50.698;13.322;2023-04-25T02:05:13;5.10;;;3.67;;
62903;SDS011;49000;50.698;13.322;2023-04-25T02:07:38;5.77;;;3.73;;
62903;SDS011;49000;50.698;13.322;2023-04-25T02:10:04;5.80;;;4.20;;
62903;SDS011;49000;50.698;13.322;2023-04-25T02:12:30;5.73;;;3.63;;
62903;SDS011;49000;50.698;13.322;2023-04-25T02:14:56;4.40;;;3.60;;
62903;SDS011;49000;50.698;13.322;2023-04-25T02:17:22;5.70;;;4.10;;
62903;SDS011;49000;50.698;13.322;2023-04-25T02:19:47;6.93;;;4.10;;
62903;SDS011;49000;50.698;13.322;2023-04-25T02:22:13;5.10;;;3.90;;
62903;SDS011;49000;50.698;13.322;2023-04-25T02:24:39;4.97;;;3.77;;
62903;SDS011;49000;50.698;13.322;2023-04-25T02:27:04;4.37;;;3.80;;
62903;SDS011;49000;50.698;13.322;2023-04-25T02:29:30;7.13;;;3.37;;
62903;SDS011;49000;50.698;13.322;2023-04-25T02:31:56;5.03;;;3.73;;
62903;SDS011;49000;50.698;13.322;2023-04-25T02:34:21;5.40;;;3.50;;
62903;SDS011;49000;50.698;13.322;2023-04-25T02:36:48;5.97;;;4.03;;
62903;SDS011;49000;50.698;13.322;2023-04-25T02:39:15;6.23;;;4.43;;
62903;SDS011;49000;50.698;13.322;2023-04-25T02:41:41;5.60;;;4.17;;
62903;SDS011;49000;50.698;13.322;2023-04-25T02:44:07;5.07;;;3.93;;
62903;SDS011;49000;50.698;13.322;2023-04-25T02:46:32;6.93;;;3.87;;
62903;SDS011;49000;50.698;13.322;2023-04-25T02:48:57;7.60;;;4.03;;
62903;SDS011;49000;50.698;13.322;2023-04-25T02:51:23;6.33;;;4.13;;
62903;SDS011;49000;50.698;13.322;2023-04-25T02:53:48;4.83;;;3.73;;
62903;SDS011;49000;50.698;13.322;2023-04-25T02:56:14;6.30;;;4.27;;
62903;SDS011;49000;50.698;13.322;2023-04-25T02:58:39;5.87;;;4.23;;
62903;SDS011;49000;50.698;13.322;2023-04-25T03:01:05;6.10;;;3.70;;
62903;SDS011;49000;50.698;13.322;2023-04-25T03:03:30;7.27;;;4.40;;
62903;SDS011;49000;50.698;13.322;2023-04-25T03:05:56;5.20;;;4.10;;
62903;SDS011;49000;50.698;13.322;2023-04-25T03:08:21;5.33;;;4.07;;
62903;SDS011;49000;50.698;13.322;2023-04-25T03:10:47;6.67;;;3.97;;
62903;SDS011;49000;50.698;13.322;2023-04-25T03:13:14;6.67;;;4.20;;
62903;SDS011;49000;50.698;13.322;2023-04-25T03:15:40;5.67;;;4.07;;
62903;SDS011;49000;50.698;13.322;2023-04-25T03:18:05;4.73;;;3.97;;
62903;SDS011;49000;50.698;13.322;2023-04-25T03:20:31;4.50;;;3.83;;
62903;SDS011;49000;50.698;13.322;2023-04-25T03:22:56;4.37;;;3.57;;
62903;SDS011;49000;50.698;13.322;2023-04-25T03:25:22;4.77;;;3.73;;
62903;SDS011;49000;50.698;13.322;2023-04-25T03:27:47;6.40;;;4.30;;
62903;SDS011;49000;50.698;13.322;2023-04-25T03:30:13;5.83;;;4.23;;
62903;SDS011;49000;50.698;13.322;2023-04-25T03:32:38;7.37;;;4.47;;
62903;SDS011;49000;50.698;13.322;2023-04-25T03:35:04;5.07;;;3.67;;
62903;SDS011;49000;50.698;13.322;2023-04-25T03:37:30;6.10;;;4.20;;
62903;SDS011;49000;50.698;13.322;2023-04-25T03:39:55;4.37;;;3.80;;
62903;SDS011;49000;50.698;13.322;2023-04-25T03:42:21;6.57;;;4.73;;
62903;SDS011;49000;50.698;13.322;2023-04-25T03:44:48;5.67;;;4.50;;
62903;SDS011;49000;50.698;13.322;2023-04-25T03:47:13;6.57;;;4.53;;
62903;SDS011;49000;50.698;13.322;2023-04-25T03:49:39;6.67;;;4.77;;
62903;SDS011;49000;50.698;13.322;2023-04-25T03:52:04;8.47;;;5.20;;
62903;SDS011;49000;50.698;13.322;2023-04-25T03:54:30;6.63;;;5.73;;
62903;SDS011;49000;50.698;13.322;2023-04-25T03:56:55;9.63;;;4.67;;
62903;SDS011;49000;50.698;13.322;2023-04-25T03:59:21;10.13;;;5.73;;
62903;SDS011;49000;50.698;13.322;2023-04-25T04:01:46;6.97;;;5.10;;
62903;SDS011;49000;50.698;13.322;2023-04-25T04:04:12;7.00;;;5.50;;
62903;SDS011;49000;50.698;13.322;2023-04-25T04:06:37;8.57;;;5.80;;
62903;SDS011;49000;50.698;13.322;2023-04-25T04:09:03;8.43;;;5.40;;
62903;SDS011;49000;50.698;13.322;2023-04-25T04:11:28;9.40;;;6.17;;
62903;SDS011;49000;50.698;13.322;2023-04-25T04:13:54;8.33;;;5.50;;
62903;SDS011;49000;50.698;13.322;2023-04-25T04:16:19;9.40;;;4.97;;
62903;SDS011;49000;50.698;13.322;2023-04-25T04:18:45;8.13;;;5.20;;
62903;SDS011;49000;50.698;13.322;2023-04-25T04:21:11;9.40;;;5.80;;
62903;SDS011;49000;50.698;13.322;2023-04-25T04:23:36;7.27;;;4.87;;
62903;SDS011;49000;50.698;13.322;2023-04-25T04:26:02;8.37;;;4.90;;
62903;SDS011;49000;50.698;13.322;2023-04-25T04:28:27;6.70;;;4.87;;
62903;SDS011;49000;50.698;13.322;2023-04-25T04:30:53;7.53;;;4.77;;
62903;SDS011;49000;50.698;13.322;2023-04-25T04:33:19;7.83;;;5.17;;
62903;SDS011;49000;50.698;13.322;2023-04-25T04:35:44;6.00;;;4.30;;
62903;SDS011;49000;50.698;13.322;2023-04-25T04:38:11;6.17;;;4.80;;
62903;SDS011;49000;50.698;13.322;2023-04-25T04:40:39;8.73;;;4.80;;
62903;SDS011;49000;50.698;13.322;2023-04-25T04:43:06;7.33;;;4.63;;
62903;SDS011;49000;50.698;13.322;2023-04-25T04:45:33;4.77;;;4.07;;
62903;SDS011;49000;50.698;13.322;2023-04-25T04:47:59;6.47;;;4.67;;
62903;SDS011;49000;50.698;13.322;2023-04-25T04:50:24;4.53;;;4.03;;
62903;SDS011;49000;50.698;13.322;2023-04-25T04:52:51;4.87;;;4.33;;
62903;SDS011;49000;50.698;13.322;2023-04-25T04:55:16;6.60;;;4.70;;
62903;SDS011;49000;50.698;13.322;2023-04-25T04:57:42;8.27;;;4.77;;
62903;SDS011;49000;50.698;13.322;2023-04-25T05:00:08;6.37;;;4.70;;
62903;SDS011;49000;50.698;13.322;2023-04-25T05:02:36;7.27;;;4.63;;
62903;SDS011;49000;50.698;13.322;2023-04-25T05:05:03;6.20;;;4.60;;
62903;SDS011;49000;50.698;13.322;2023-04-25T05:07:29;7.13;;;5.00;;
62903;SDS011;49000;50.698;13.322;2023-04-25T05:09:54;8.93;;;5.47;;
62903;SDS011;49000;50.698;13.322;2023-04-25T05:12:20;7.40;;;4.83;;
62903;SDS011;49000;50.698;13.322;2023-04-25T05:14:45;5.33;;;4.17;;
62903;SDS011;49000;50.698;13.322;2023-04-25T05:17:11;9.10;;;4.70;;
62903;SDS011;49000;50.698;13.322;2023-04-25T05:19:36;7.80;;;5.07;;
62903;SDS011;49000;50.698;13.322;2023-04-25T05:22:02;7.80;;;4.77;;
62903;SDS011;49000;50.698;13.322;2023-04-25T05:24:28;8.70;;;5.50;;
62903;SDS011;49000;50.698;13.322;2023-04-25T05:26:54;7.20;;;5.17;;
62903;SDS011;49000;50.698;13.322;2023-04-25T05:29:19;7.50;;;5.40;;
62903;SDS011;49000;50.698;13.322;2023-04-25T05:31:45;7.87;;;5.60;;
62903;SDS011;49000;50.698;13.322;2023-04-25T05:34:10;7.30;;;5.37;;
62903;SDS011;49000;50.698;13.322;2023-04-25T05:36:36;11.70;;;5.57;;
62903;SDS011;49000;50.698;13.322;2023-04-25T05:39:01;9.07;;;5.57;;
62903;SDS011;49000;50.698;13.322;2023-04-25T05:41:28;7.80;;;5.27;;
62903;SDS011;49000;50.698;13.322;2023-04-25T05:43:54;10.20;;;5.87;;
62903;SDS011;49000;50.698;13.322;2023-04-25T05:46:19;7.97;;;5.20;;
62903;SDS011;49000;50.698;13.322;2023-04-25T05:48:44;8.90;;;5.70;;
62903;SDS011;49000;50.698;13.322;2023-04-25T05:51:10;8.47;;;5.63;;
62903;SDS011;49000;50.698;13.322;2023-04-25T05:53:35;7.97;;;5.30;;
62903;SDS011;49000;50.698;13.322;2023-04-25T05:56:01;6.90;;;5.13;;
62903;SDS011;49000;50.698;13.322;2023-04-25T05:58:27;8.93;;;5.87;;
62903;SDS011;49000;50.698;13.322;2023-04-25T06:00:53;9.40;;;5.67;;
62903;SDS011;49000;50.698;13.322;2023-04-25T06:03:19;9.70;;;6.03;;
62903;SDS011;49000;50.698;13.322;2023-04-25T06:05:45;8.23;;;5.40;;
62903;SDS011;49000;50.698;13.322;2023-04-25T06:08:10;7.73;;;5.10;;
62903;SDS011;49000;50.698;13.322;2023-04-25T06:10:36;6.33;;;5.10;;
62903;SDS011;49000;50.698;13.322;2023-04-25T06:13:02;6.33;;;5.13;;
62903;SDS011;49000;50.698;13.322;2023-04-25T06:15:29;9.40;;;5.00;;
62903;SDS011;49000;50.698;13.322;2023-04-25T06:17:54;6.73;;;5.00;;
62903;SDS011;49000;50.698;13.322;2023-04-25T06:20:20;7.37;;;5.43;;
62903;SDS011;49000;50.698;13.322;2023-04-25T06:22:48;9.73;;;5.90;;
62903;SDS011;49000;50.698;13.322;2023-04-25T06:25:14;7.17;;;5.30;;
62903;SDS011;49000;50.698;13.322;2023-04-25T06:27:40;7.83;;;5.17;;
62903;SDS011;49000;50.698;13.322;2023-04-25T06:30:05;6.10;;;4.97;;
62903;SDS011;49000;50.698;13.322;2023-04-25T06:32:31;6.27;;;4.57;;
62903;SDS011;49000;50.698;13.322;2023-04-25T06:34:57;6.63;;;4.60;;
62903;SDS011;49000;50.698;13.322;2023-04-25T06:37:22;7.13;;;4.83;;
62903;SDS011;49000;50.698;13.322;2023-04-25T06:39:48;9.23;;;5.10;;
62903;SDS011;49000;50.698;13.322;2023-04-25T06:42:14;6.70;;;4.63;;
62903;SDS011;49000;50.698;13.322;2023-04-25T06:44:39;6.23;;;4.27;;
62903;SDS011;49000;50.698;13.322;2023-04-25T06:47:05;6.93;;;4.43;;
62903;SDS011;49000;50.698;13.322;2023-04-25T06:49:30;7.13;;;4.87;;
62903;SDS011;49000;50.698;13.322;2023-04-25T06:51:56;9.00;;;5.07;;
62903;SDS011;49000;50.698;13.322;2023-04-25T06:54:21;7.73;;;4.10;;
62903;SDS011;49000;50.698;13.322;2023-04-25T06:56:47;6.47;;;4.53;;
62903;SDS011;49000;50.698;13.322;2023-04-25T06:59:12;7.40;;;4.13;;
62903;SDS011;49000;50.698;13.322;2023-04-25T07:01:37;7.57;;;4.67;;
62903;SDS011;49000;50.698;13.322;2023-04-25T07:04:03;6.77;;;4.70;;
62903;SDS011;49000;50.698;13.322;2023-04-25T07:06:28;8.13;;;4.40;;
62903;SDS011;49000;50.698;13.322;2023-04-25T07:08:54;6.77;;;4.27;;
62903;SDS011;49000;50.698;13.322;2023-04-25T07:11:20;7.87;;;4.40;;
62903;SDS011;49000;50.698;13.322;2023-04-25T07:13:46;6.37;;;4.70;;
62903;SDS011;49000;50.698;13.322;2023-04-25T07:16:11;8.97;;;4.60;;
62903;SDS011;49000;50.698;13.322;2023-04-25T07:18:36;10.37;;;5.43;;
62903;SDS011;49000;50.698;13.322;2023-04-25T07:21:02;8.93;;;4.50;;
62903;SDS011;49000;50.698;13.322;2023-04-25T07:23:28;6.47;;;4.20;;
62903;SDS011;49000;50.698;13.322;2023-04-25T07:25:55;7.70;;;5.00;;
62903;SDS011;49000;50.698;13.322;2023-04-25T07:28:20;5.83;;;3.93;;
62903;SDS011;49000;50.698;13.322;2023-04-25T07:30:46;6.07;;;3.97;;
62903;SDS011;49000;50.698;13.322;2023-04-25T07:33:12;4.40;;;3.80;;
62903;SDS011;49000;50.698;13.322;2023-04-25T07:35:37;5.53;;;3.40;;
62903;SDS011;49000;50.698;13.322;2023-04-25T07:38:02;3.60;;;2.47;;
62903;SDS011;49000;50.698;13.322;2023-04-25T07:40:28;5.63;;;3.10;;
62903;SDS011;49000;50.698;13.322;2023-04-25T07:42:54;3.43;;;2.20;;
62903;SDS011;49000;50.698;13.322;2023-04-25T07:45:19;2.67;;;2.40;;
62903;SDS011;49000;50.698;13.322;2023-04-25T07:47:45;3.60;;;2.70;;
62903;SDS011;49000;50.698;13.322;2023-04-25T07:50:10;3.10;;;2.00;;
62903;SDS011;49000;50.698;13.322;2023-04-25T07:52:36;6.60;;;2.57;;
62903;SDS011;49000;50.698;13.322;2023-04-25T07:55:02;4.97;;;2.27;;
62903;SDS011;49000;50.698;13.322;2023-04-25T07:57:28;2.90;;;2.30;;
62903;SDS011;49000;50.698;13.322;2023-04-25T07:59:54;3.60;;;2.23;;
62903;SDS011;49000;50.698;13.322;2023-04-25T08:02:19;4.37;;;2.53;;
62903;SDS011;49000;50.698;13.322;2023-04-25T08:04:45;3.50;;;2.77;;
62903;SDS011;49000;50.698;13.322;2023-04-25T08:07:11;3.43;;;2.63;;
62903;SDS011;49000;50.698;13.322;2023-04-25T08:09:36;4.00;;;2.27;;
62903;SDS011;49000;50.698;13.322;2023-04-25T08:12:02;3.97;;;2.70;;
62903;SDS011;49000;50.698;13.322;2023-04-25T08:14:28;4.27;;;2.80;;
62903;SDS011;49000;50.698;13.322;2023-04-25T08:17:00;5.43;;;2.73;;
62903;SDS011;49000;50.698;13.322;2023-04-25T08:19:26;3.77;;;2.33;;
62903;SDS011;49000;50.698;13.322;2023-04-25T08:21:51;4.83;;;2.53;;
62903;SDS011;49000;50.698;13.322;2023-04-25T08:24:17;4.63;;;2.30;;
62903;SDS011;49000;50.698;13.322;2023-04-25T08:26:42;4.40;;;2.57;;
62903;SDS011;49000;50.698;13.322;2023-04-25T08:29:08;5.53;;;3.10;;
62903;SDS011;49000;50.698;13.322;2023-04-25T08:31:33;4.47;;;2.93;;
62903;SDS011;49000;50.698;13.322;2023-04-25T08:33:59;6.60;;;4.37;;
62903;SDS011;49000;50.698;13.322;2023-04-25T08:36:24;6.57;;;3.70;;
62903;SDS011;49000;50.698;13.322;2023-04-25T08:38:50;5.67;;;3.83;;
62903;SDS011;49000;50.698;13.322;2023-04-25T08:41:15;5.93;;;3.80;;
62903;SDS011;49000;50.698;13.322;2023-04-25T08:43:42;4.30;;;3.60;;
62903;SDS011;49000;50.698;13.322;2023-04-25T08:46:09;6.03;;;3.80;;
62903;SDS011;49000;50.698;13.322;2023-04-25T08:48:36;4.70;;;3.97;;
62903;SDS011;49000;50.698;13.322;2023-04-25T08:51:02;6.50;;;3.80;;
62903;SDS011;49000;50.698;13.322;2023-04-25T08:53:30;6.70;;;3.73;;
62903;SDS011;49000;50.698;13.322;2023-04-25T08:55:58;5.23;;;4.17;;
62903;SDS011;49000;50.698;13.322;2023-04-25T08:58:24;5.90;;;4.20;;
62903;SDS011;49000;50.698;13.322;2023-04-25T09:00:50;6.33;;;4.17;;
62903;SDS011;49000;50.698;13.322;2023-04-25T09:03:17;7.17;;;3.80;;
62903;SDS011;49000;50.698;13.322;2023-04-25T09:05:43;4.23;;;3.73;;
62903;SDS011;49000;50.698;13.322;2023-04-25T09:08:09;5.93;;;3.43;;
62903;SDS011;49000;50.698;13.322;2023-04-25T09:10:35;5.17;;;3.53;;
62903;SDS011;49000;50.698;13.322;2023-04-25T09:13:04;6.73;;;3.03;;
62903;SDS011;49000;50.698;13.322;2023-04-25T09:15:31;6.97;;;3.70;;
62903;SDS011;49000;50.698;13.322;2023-04-25T09:17:57;5.03;;;3.37;;
62903;SDS011;49000;50.698;13.322;2023-04-25T09:20:24;6.57;;;3.57;;
62903;SDS011;49000;50.698;13.322;2023-04-25T09:22:50;4.37;;;3.20;;
62903;SDS011;49000;50.698;13.322;2023-04-25T09:25:27;4.87;;;3.27;;
62903;SDS011;49000;50.698;13.322;2023-04-25T09:28:05;5.53;;;3.50;;
62903;SDS011;49000;50.698;13.322;2023-04-25T09:30:32;5.53;;;3.63;;
62903;SDS011;49000;50.698;13.322;2023-04-25T09:33:11;5.07;;;3.83;;
62903;SDS011;49000;50.698;13.322;2023-04-25T09:35:38;7.23;;;3.90;;
62903;SDS011;49000;50.698;13.322;2023-04-25T09:38:12;7.27;;;3.67;;
62903;SDS011;49000;50.698;13.322;2023-04-25T09:40:39;9.07;;;4.10;;
62903;SDS011;49000;50.698;13.322;2023-04-25T09:43:24;4.10;;;3.70;;
62903;SDS011;49000;50.698;13.322;2023-04-25T09:45:50;5.67;;;4.07;;
62903;SDS011;49000;50.698;13.322;2023-04-25T09:48:18;6.83;;;4.07;;
62903;SDS011;49000;50.698;13.322;2023-04-25T09:53:43;9.70;;;3.73;;
62903;SDS011;49000;50.698;13.322;2023-04-25T09:56:16;6.60;;;4.03;;
62903;SDS011;49000;50.698;13.322;2023-04-25T09:58:41;4.20;;;3.70;;
62903;SDS011;49000;50.698;13.322;2023-04-25T10:01:08;5.03;;;3.70;;
62903;SDS011;49000;50.698;13.322;2023-04-25T10:03:35;5.73;;;3.07;;
62903;SDS011;49000;50.698;13.322;2023-04-25T10:06:06;5.37;;;2.87;;
62903;SDS011;49000;50.698;13.322;2023-04-25T10:08:34;4.93;;;3.10;;
62903;SDS011;49000;50.698;13.322;2023-04-25T10:11:02;5.33;;;3.40;;
62903;SDS011;49000;50.698;13.322;2023-04-25T10:13:33;3.90;;;2.90;;
62903;SDS011;49000;50.698;13.322;2023-04-25T10:16:00;3.07;;;2.73;;
62903;SDS011;49000;50.698;13.322;2023-04-25T10:18:30;6.23;;;2.90;;
62903;SDS011;49000;50.698;13.322;2023-04-25T10:21:00;4.40;;;2.40;;
62903;SDS011;49000;50.698;13.322;2023-04-25T10:23:27;5.07;;;2.80;;
62903;SDS011;49000;50.698;13.322;2023-04-25T10:25:54;4.30;;;3.40;;
62903;SDS011;49000;50.698;13.322;2023-04-25T10:28:20;4.60;;;3.10;;
62903;SDS011;49000;50.698;13.322;2023-04-25T10:31:06;4.27;;;2.90;;
62903;SDS011;49000;50.698;13.322;2023-04-25T10:33:36;4.17;;;3.03;;
62903;SDS011;49000;50.698;13.322;2023-04-25T10:36:12;4.03;;;3.37;;
62903;SDS011;49000;50.698;13.322;2023-04-25T10:38:49;5.73;;;3.50;;
62903;SDS011;49000;50.698;13.322;2023-04-25T10:41:17;7.20;;;3.57;;
62903;SDS011;49000;50.698;13.322;2023-04-25T10:43:44;3.90;;;3.50;;
62903;SDS011;49000;50.698;13.322;2023-04-25T10:46:27;3.60;;;3.30;;
62903;SDS011;49000;50.698;13.322;2023-04-25T10:48:57;4.63;;;3.57;;
62903;SDS011;49000;50.698;13.322;2023-04-25T10:51:24;7.17;;;3.80;;
62903;SDS011;49000;50.698;13.322;2023-04-25T10:53:58;5.87;;;3.77;;
62903;SDS011;49000;50.698;13.322;2023-04-25T10:56:31;6.10;;;3.63;;
62903;SDS011;49000;50.698;13.322;2023-04-25T10:59:08;4.97;;;4.03;;
62903;SDS011;49000;50.698;13.322;2023-04-25T11:01:39;4.33;;;3.47;;
62903;SDS011;49000;50.698;13.322;2023-04-25T11:04:06;4.77;;;3.37;;
62903;SDS011;49000;50.698;13.322;2023-04-25T11:09:32;5.20;;;3.87;;
62903;SDS011;49000;50.698;13.322;2023-04-25T11:11:58;4.97;;;3.70;;
62903;SDS011;49000;50.698;13.322;2023-04-25T11:14:25;5.67;;;3.77;;
62903;SDS011;49000;50.698;13.322;2023-04-25T11:16:55;5.20;;;4.10;;
62903;SDS011;49000;50.698;13.322;2023-04-25T11:19:22;5.73;;;4.17;;
62903;SDS011;49000;50.698;13.322;2023-04-25T11:21:48;5.77;;;4.33;;
62903;SDS011;49000;50.698;13.322;2023-04-25T11:24:14;7.50;;;4.10;;
62903;SDS011;49000;50.698;13.322;2023-04-25T11:26:41;5.63;;;3.70;;
62903;SDS011;49000;50.698;13.322;2023-04-25T11:29:08;5.90;;;4.10;;
62903;SDS011;49000;50.698;13.322;2023-04-25T11:31:33;5.00;;;3.80;;
62903;SDS011;49000;50.698;13.322;2023-04-25T11:33:59;4.87;;;4.37;;
62903;SDS011;49000;50.698;13.322;2023-04-25T11:36:25;6.03;;;5.30;;
62903;SDS011;49000;50.698;13.322;2023-04-25T11:38:51;7.73;;;6.97;;
62903;SDS011;49000;50.698;13.322;2023-04-25T11:41:18;10.87;;;7.70;;
62903;SDS011;49000;50.698;13.322;2023-04-25T11:43:45;11.43;;;9.33;;
62903;SDS011;49000;50.698;13.322;2023-04-25T11:46:10;11.43;;;9.27;;
62903;SDS011;49000;50.698;13.322;2023-04-25T11:48:37;12.50;;;10.77;;
62903;SDS011;49000;50.698;13.322;2023-04-25T11:51:04;13.13;;;10.93;;
62903;SDS011;49000;50.698;13.322;2023-04-25T11:53:29;11.37;;;9.80;;
62903;SDS011;49000;50.698;13.322;2023-04-25T11:55:55;14.90;;;9.90;;
62903;SDS011;49000;50.698;13.322;2023-04-25T11:58:21;13.70;;;10.07;;
62903;SDS011;49000;50.698;13.322;2023-04-25T12:00:46;13.37;;;10.17;;
62903;SDS011;49000;50.698;13.322;2023-04-25T12:03:12;16.27;;;9.97;;
62903;SDS011;49000;50.698;13.322;2023-04-25T12:05:38;14.33;;;8.80;;
62903;SDS011;49000;50.698;13.322;2023-04-25T12:08:14;11.77;;;9.20;;
62903;SDS011;49000;50.698;13.322;2023-04-25T12:10:41;13.07;;;10.27;;
62903;SDS011;49000;50.698;13.322;2023-04-25T12:13:17;11.80;;;8.80;;
62903;SDS011;49000;50.698;13.322;2023-04-25T12:15:50;14.27;;;10.30;;
62903;SDS011;49000;50.698;13.322;2023-04-25T12:18:18;11.43;;;9.17;;
62903;SDS011;49000;50.698;13.322;2023-04-25T12:20:46;10.80;;;8.80;;
62903;SDS011;49000;50.698;13.322;2023-04-25T12:23:11;10.47;;;7.97;;
62903;SDS011;49000;50.698;13.322;2023-04-25T12:25:38;12.93;;;7.90;;
62903;SDS011;49000;50.698;13.322;2023-04-25T12:30:56;14.40;;;8.27;;
62903;SDS011;49000;50.698;13.322;2023-04-25T12:33:27;11.10;;;7.60;;
62903;SDS011;49000;50.698;13.322;2023-04-25T12:36:00;8.07;;;6.03;;
62903;SDS011;49000;50.698;13.322;2023-04-25T12:38:37;13.70;;;7.47;;
62903;SDS011;49000;50.698;13.322;2023-04-25T12:41:03;9.27;;;7.90;;
62903;SDS011;49000;50.698;13.322;2023-04-25T12:43:29;11.77;;;8.57;;
62903;SDS011;49000;50.698;13.322;2023-04-25T12:45:55;11.67;;;8.47;;
62903;SDS011;49000;50.698;13.322;2023-04-25T12:48:21;13.00;;;8.93;;
62903;SDS011;49000;50.698;13.322;2023-04-25T12:50:47;12.17;;;8.37;;
62903;SDS011;49000;50.698;13.322;2023-04-25T12:53:17;14.37;;;10.27;;
62903;SDS011;49000;50.698;13.322;2023-04-25T12:55:44;12.30;;;9.53;;
62903;SDS011;49000;50.698;13.322;2023-04-25T12:58:13;12.20;;;8.67;;
62903;SDS011;49000;50.698;13.322;2023-04-25T13:00:40;12.27;;;8.57;;
62903;SDS011;49000;50.698;13.322;2023-04-25T13:03:05;15.33;;;8.47;;
62903;SDS011;49000;50.698;13.322;2023-04-25T13:05:31;10.37;;;7.27;;
62903;SDS011;49000;50.698;13.322;2023-04-25T13:07:56;11.23;;;6.40;;
62903;SDS011;49000;50.698;13.322;2023-04-25T13:10:22;11.67;;;6.47;;
62903;SDS011;49000;50.698;13.322;2023-04-25T13:12:47;11.90;;;6.63;;
62903;SDS011;49000;50.698;13.322;2023-04-25T13:15:13;10.00;;;6.40;;
62903;SDS011;49000;50.698;13.322;2023-04-25T13:17:40;10.57;;;6.20;;
62903;SDS011;49000;50.698;13.322;2023-04-25T13:20:06;10.13;;;5.90;;
62903;SDS011;49000;50.698;13.322;2023-04-25T13:22:33;9.37;;;5.20;;
62903;SDS011;49000;50.698;13.322;2023-04-25T13:25:03;10.23;;;5.73;;
62903;SDS011;49000;50.698;13.322;2023-04-25T13:27:30;7.93;;;5.27;;
62903;SDS011;49000;50.698;13.322;2023-04-25T13:29:57;8.00;;;5.77;;
62903;SDS011;49000;50.698;13.322;2023-04-25T13:32:23;11.30;;;6.50;;
62903;SDS011;49000;50.698;13.322;2023-04-25T13:34:48;9.87;;;5.93;;
62903;SDS011;49000;50.698;13.322;2023-04-25T13:37:14;10.67;;;7.13;;
62903;SDS011;49000;50.698;13.322;2023-04-25T13:39:40;11.83;;;6.70;;
62903;SDS011;49000;50.698;13.322;2023-04-25T13:42:05;11.63;;;7.33;;
62903;SDS011;49000;50.698;13.322;2023-04-25T13:44:31;7.67;;;5.10;;
62903;SDS011;49000;50.698;13.322;2023-04-25T13:46:56;9.10;;;6.40;;
62903;SDS011;49000;50.698;13.322;2023-04-25T13:49:22;9.73;;;7.10;;
62903;SDS011;49000;50.698;13.322;2023-04-25T13:51:48;13.00;;;6.20;;
62903;SDS011;49000;50.698;13.322;2023-04-25T13:54:13;13.87;;;7.87;;
62903;SDS011;49000;50.698;13.322;2023-04-25T13:56:39;11.03;;;7.03;;
62903;SDS011;49000;50.698;13.322;2023-04-25T13:59:06;8.63;;;6.63;;
62903;SDS011;49000;50.698;13.322;2023-04-25T14:01:32;11.73;;;6.70;;
62903;SDS011;49000;50.698;13.322;2023-04-25T14:04:00;11.37;;;7.80;;
62903;SDS011;49000;50.698;13.322;2023-04-25T14:06:26;13.47;;;7.03;;
62903;SDS011;49000;50.698;13.322;2023-04-25T14:08:52;13.67;;;7.57;;
62903;SDS011;49000;50.698;13.322;2023-04-25T14:11:18;9.00;;;7.03;;
62903;SDS011;49000;50.698;13.322;2023-04-25T14:13:44;9.63;;;5.97;;
62903;SDS011;49000;50.698;13.322;2023-04-25T14:16:10;9.83;;;6.37;;
62903;SDS011;49000;50.698;13.322;2023-04-25T14:18:35;10.10;;;5.83;;
62903;SDS011;49000;50.698;13.322;2023-04-25T14:21:01;10.67;;;6.27;;
62903;SDS011;49000;50.698;13.322;2023-04-25T14:23:26;12.53;;;5.80;;
62903;SDS011;49000;50.698;13.322;2023-04-25T14:25:52;10.13;;;5.50;;
62903;SDS011;49000;50.698;13.322;2023-04-25T14:28:17;8.87;;;5.67;;
62903;SDS011;49000;50.698;13.322;2023-04-25T14:30:43;9.73;;;5.53;;
62903;SDS011;49000;50.698;13.322;2023-04-25T14:33:08;9.10;;;5.40;;
62903;SDS011;49000;50.698;13.322;2023-04-25T14:35:34;9.10;;;5.87;;